sensor_id;sensor_type;location;lat;lon;timestamp;P1;durP1;ratioP1;P2;durP2;ratioP2
52342;SDS011;38277;51.972;4.624;2023-04-05T00:04:00;12.4;;;6.4;;
52342;SDS011;38277;51.972;4.624;2023-04-05T00:08:35;10.6;;;5.2;;
52342;SDS011;38277;51.972;4.624;2023-04-05T00:13:21;10.2;;;5.0;;
52342;SDS011;38277;51.972;4.624;2023-04-05T00:17:48;12.4;;;5.2;;
52342;SDS011;38277;51.972;4.624;2023-04-05T00:22:00;11.7;;;5.7;;
52342;SDS011;38277;51.972;4.624;2023-04-05T00:26:31;11.5;;;5.7;;
52342;SDS011;38277;51.972;4.624;2023-04-05T00:31:25;14.4;;;6.1;;
52342;SDS011;38277;51.972;4.624;2023-04-05T00:35:54;14.8;;;7.4;;
52342;SDS011;38277;51.972;4.624;2023-04-05T00:40:05;13.4;;;6.5;;
52342;SDS011;38277;51.972;4.624;2023-04-05T00:44:34;14.3;;;6.6;;
52342;SDS011;38277;51.972;4.624;2023-04-05T00:49:01;12.2;;;6.3;;
52342;SDS011;38277;51.972;4.624;2023-04-05T00:53:47;18.1;;;7.9;;
52342;SDS011;38277;51.972;4.624;2023-04-05T00:57:57;13.1;;;6.1;;
52342;SDS011;38277;51.972;4.624;2023-04-05T01:02:40;12.0;;;6.4;;
52342;SDS011;38277;51.972;4.624;2023-04-05T01:07:22;13.6;;;7.2;;
52342;SDS011;38277;51.972;4.624;2023-04-05T01:11:52;12.5;;;6.0;;
52342;SDS011;38277;51.972;4.624;2023-04-05T01:16:17;14.1;;;6.4;;
52342;SDS011;38277;51.972;4.624;2023-04-05T01:21:19;10.4;;;5.6;;
52342;SDS011;38277;51.972;4.624;2023-04-05T01:31:22;12.6;;;6.2;;
52342;SDS011;38277;51.972;4.624;2023-04-05T01:35:36;12.2;;;5.3;;
52342;SDS011;38277;51.972;4.624;2023-04-05T01:38:29;13.7;;;6.9;;
52342;SDS011;38277;51.972;4.624;2023-04-05T01:43:14;16.4;;;6.1;;
52342;SDS011;38277;51.972;4.624;2023-04-05T01:47:48;10.3;;;5.3;;
52342;SDS011;38277;51.972;4.624;2023-04-05T01:51:57;11.2;;;6.2;;
52342;SDS011;38277;51.972;4.624;2023-04-05T01:56:33;11.8;;;6.3;;
52342;SDS011;38277;51.972;4.624;2023-04-05T02:05:47;13.2;;;6.7;;
52342;SDS011;38277;51.972;4.624;2023-04-05T02:10:01;11.4;;;6.3;;
52342;SDS011;38277;51.972;4.624;2023-04-05T02:14:37;10.0;;;5.3;;
52342;SDS011;38277;51.972;4.624;2023-04-05T02:19:05;14.6;;;6.5;;
52342;SDS011;38277;51.972;4.624;2023-04-05T02:23:30;12.1;;;6.6;;
52342;SDS011;38277;51.972;4.624;2023-04-05T02:28:24;13.2;;;6.6;;
52342;SDS011;38277;51.972;4.624;2023-04-05T02:32:28;15.0;;;7.5;;
52342;SDS011;38277;51.972;4.624;2023-04-05T02:39:03;15.7;;;7.7;;
52342;SDS011;38277;51.972;4.624;2023-04-05T02:41:27;12.6;;;7.1;;
52342;SDS011;38277;51.972;4.624;2023-04-05T02:46:23;11.8;;;6.0;;
52342;SDS011;38277;51.972;4.624;2023-04-05T02:50:49;10.4;;;5.6;;
52342;SDS011;38277;51.972;4.624;2023-04-05T02:55:03;11.9;;;6.3;;
52342;SDS011;38277;51.972;4.624;2023-04-05T02:59:34;13.9;;;7.6;;
52342;SDS011;38277;51.972;4.624;2023-04-05T03:04:09;13.2;;;6.5;;
52342;SDS011;38277;51.972;4.624;2023-04-05T03:08:34;13.3;;;6.5;;
52342;SDS011;38277;51.972;4.624;2023-04-05T03:13:08;12.8;;;5.9;;
52342;SDS011;38277;51.972;4.624;2023-04-05T03:17:35;13.2;;;6.4;;
52342;SDS011;38277;51.972;4.624;2023-04-05T03:22:23;13.0;;;6.0;;
52342;SDS011;38277;51.972;4.624;2023-04-05T03:26:44;12.3;;;6.4;;
52342;SDS011;38277;51.972;4.624;2023-04-05T03:30:58;13.7;;;6.7;;
52342;SDS011;38277;51.972;4.624;2023-04-05T03:35:55;12.8;;;5.7;;
52342;SDS011;38277;51.972;4.624;2023-04-05T03:40:06;14.1;;;6.0;;
52342;SDS011;38277;51.972;4.624;2023-04-05T03:44:27;12.0;;;5.8;;
52342;SDS011;38277;51.972;4.624;2023-04-05T03:53:44;13.6;;;6.2;;
52342;SDS011;38277;51.972;4.624;2023-04-05T03:58:00;13.8;;;7.3;;
52342;SDS011;38277;51.972;4.624;2023-04-05T04:02:41;12.7;;;6.5;;
52342;SDS011;38277;51.972;4.624;2023-04-05T04:07:08;13.5;;;6.5;;
52342;SDS011;38277;51.972;4.624;2023-04-05T04:11:55;13.8;;;6.8;;
52342;SDS011;38277;51.972;4.624;2023-04-05T04:16:10;13.9;;;6.8;;
52342;SDS011;38277;51.972;4.624;2023-04-05T04:20:53;13.1;;;7.3;;
52342;SDS011;38277;51.972;4.624;2023-04-05T04:29:40;11.8;;;6.5;;
52342;SDS011;38277;51.972;4.624;2023-04-05T04:34:05;16.3;;;7.6;;
52342;SDS011;38277;51.972;4.624;2023-04-05T04:38:27;16.3;;;7.8;;
52342;SDS011;38277;51.972;4.624;2023-04-05T04:43:05;16.7;;;8.0;;
52342;SDS011;38277;51.972;4.624;2023-04-05T04:47:30;15.7;;;7.7;;
52342;SDS011;38277;51.972;4.624;2023-04-05T04:52:00;16.1;;;8.3;;
52342;SDS011;38277;51.972;4.624;2023-04-05T04:56:38;14.9;;;7.8;;
52342;SDS011;38277;51.972;4.624;2023-04-05T05:05:50;13.5;;;6.9;;
52342;SDS011;38277;51.972;4.624;2023-04-05T05:10:05;14.8;;;7.6;;
52342;SDS011;38277;51.972;4.624;2023-04-05T05:14:42;15.1;;;8.1;;
52342;SDS011;38277;51.972;4.624;2023-04-05T05:19:03;14.5;;;7.8;;
52342;SDS011;38277;51.972;4.624;2023-04-05T05:23:29;15.4;;;7.9;;
52342;SDS011;38277;51.972;4.624;2023-04-05T05:28:02;15.3;;;7.3;;
52342;SDS011;38277;51.972;4.624;2023-04-05T05:32:43;15.6;;;7.7;;
52342;SDS011;38277;51.972;4.624;2023-04-05T05:41:31;16.2;;;9.0;;
52342;SDS011;38277;51.972;4.624;2023-04-05T05:46:25;15.8;;;8.3;;
52342;SDS011;38277;51.972;4.624;2023-04-05T05:50:40;15.8;;;8.9;;
52342;SDS011;38277;51.972;4.624;2023-04-05T05:59:50;16.5;;;7.9;;
52342;SDS011;38277;51.972;4.624;2023-04-05T06:04:18;14.9;;;7.1;;
52342;SDS011;38277;51.972;4.624;2023-04-05T06:08:28;17.0;;;9.4;;
52342;SDS011;38277;51.972;4.624;2023-04-05T06:17:51;16.7;;;9.0;;
52342;SDS011;38277;51.972;4.624;2023-04-05T06:22:21;19.9;;;9.7;;
52342;SDS011;38277;51.972;4.624;2023-04-05T06:26:45;18.0;;;9.4;;
52342;SDS011;38277;51.972;4.624;2023-04-05T06:31:08;17.8;;;9.5;;
52342;SDS011;38277;51.972;4.624;2023-04-05T06:35:33;19.9;;;10.7;;
52342;SDS011;38277;51.972;4.624;2023-04-05T06:40:26;21.7;;;11.3;;
52342;SDS011;38277;51.972;4.624;2023-04-05T06:44:36;18.3;;;10.4;;
52342;SDS011;38277;51.972;4.624;2023-04-05T06:53:32;19.7;;;10.5;;
52342;SDS011;38277;51.972;4.624;2023-04-05T06:58:17;16.0;;;9.4;;
52342;SDS011;38277;51.972;4.624;2023-04-05T07:02:43;17.3;;;9.1;;
52342;SDS011;38277;51.972;4.624;2023-04-05T07:07:17;19.3;;;10.9;;
52342;SDS011;38277;51.972;4.624;2023-04-05T07:11:43;18.7;;;9.9;;
52342;SDS011;38277;51.972;4.624;2023-04-05T07:16:06;16.7;;;9.0;;
52342;SDS011;38277;51.972;4.624;2023-04-05T07:20:54;19.4;;;10.2;;
52342;SDS011;38277;51.972;4.624;2023-04-05T07:29:43;19.8;;;10.6;;
52342;SDS011;38277;51.972;4.624;2023-04-05T07:34:17;17.4;;;9.2;;
52342;SDS011;38277;51.972;4.624;2023-04-05T07:38:48;16.0;;;8.6;;
52342;SDS011;38277;51.972;4.624;2023-04-05T07:43:15;19.0;;;9.9;;
52342;SDS011;38277;51.972;4.624;2023-04-05T07:47:39;17.3;;;8.1;;
52342;SDS011;38277;51.972;4.624;2023-04-05T07:52:24;16.8;;;8.9;;
52342;SDS011;38277;51.972;4.624;2023-04-05T07:56:56;17.4;;;8.1;;
52342;SDS011;38277;51.972;4.624;2023-04-05T08:01:09;16.6;;;8.3;;
52342;SDS011;38277;51.972;4.624;2023-04-05T08:05:46;17.0;;;7.6;;
52342;SDS011;38277;51.972;4.624;2023-04-05T08:10:22;17.9;;;9.0;;
52342;SDS011;38277;51.972;4.624;2023-04-05T08:14:55;12.2;;;7.0;;
52342;SDS011;38277;51.972;4.624;2023-04-05T08:18:58;14.6;;;7.2;;
52342;SDS011;38277;51.972;4.624;2023-04-05T08:23:50;12.9;;;7.2;;
52342;SDS011;38277;51.972;4.624;2023-04-05T08:27:57;13.4;;;7.2;;
52342;SDS011;38277;51.972;4.624;2023-04-05T08:32:54;13.0;;;7.2;;
52342;SDS011;38277;51.972;4.624;2023-04-05T08:37:06;13.4;;;6.8;;
52342;SDS011;38277;51.972;4.624;2023-04-05T08:41:33;13.1;;;7.0;;
52342;SDS011;38277;51.972;4.624;2023-04-05T08:46:09;13.2;;;6.9;;
52342;SDS011;38277;51.972;4.624;2023-04-05T08:52:35;12.1;;;6.3;;
52342;SDS011;38277;51.972;4.624;2023-04-05T08:55:06;11.4;;;5.6;;
52342;SDS011;38277;51.972;4.624;2023-04-05T08:59:46;9.9;;;5.4;;
52342;SDS011;38277;51.972;4.624;2023-04-05T09:04:14;12.0;;;6.1;;
52342;SDS011;38277;51.972;4.624;2023-04-05T09:08:37;11.1;;;5.6;;
52342;SDS011;38277;51.972;4.624;2023-04-05T09:13:12;10.9;;;5.5;;
52342;SDS011;38277;51.972;4.624;2023-04-05T09:17:51;9.8;;;5.0;;
52342;SDS011;38277;51.972;4.624;2023-04-05T09:22:07;11.1;;;5.1;;
52342;SDS011;38277;51.972;4.624;2023-04-05T09:26:30;9.2;;;4.4;;
52342;SDS011;38277;51.972;4.624;2023-04-05T09:32:51;10.6;;;4.8;;
52342;SDS011;38277;51.972;4.624;2023-04-05T09:40:10;10.2;;;5.3;;
52342;SDS011;38277;51.972;4.624;2023-04-05T09:49:06;10.2;;;5.6;;
52342;SDS011;38277;51.972;4.624;2023-04-05T09:54:05;10.4;;;5.4;;
52342;SDS011;38277;51.972;4.624;2023-04-05T09:58:17;10.1;;;5.4;;
52342;SDS011;38277;51.972;4.624;2023-04-05T10:02:43;12.4;;;5.4;;
52342;SDS011;38277;51.972;4.624;2023-04-05T10:07:20;13.2;;;6.3;;
52342;SDS011;38277;51.972;4.624;2023-04-05T10:11:31;11.6;;;5.3;;
52342;SDS011;38277;51.972;4.624;2023-04-05T10:16:10;12.2;;;5.7;;
52342;SDS011;38277;51.972;4.624;2023-04-05T10:20:49;11.8;;;6.1;;
52342;SDS011;38277;51.972;4.624;2023-04-05T10:25:30;12.7;;;6.3;;
52342;SDS011;38277;51.972;4.624;2023-04-05T10:30:06;15.1;;;5.9;;
52342;SDS011;38277;51.972;4.624;2023-04-05T10:34:05;12.4;;;6.1;;
52342;SDS011;38277;51.972;4.624;2023-04-05T10:40:11;13.0;;;6.3;;
52342;SDS011;38277;51.972;4.624;2023-04-05T10:43:19;16.0;;;8.0;;
52342;SDS011;38277;51.972;4.624;2023-04-05T10:47:56;13.9;;;6.7;;
52342;SDS011;38277;51.972;4.624;2023-04-05T10:52:26;12.5;;;6.3;;
52342;SDS011;38277;51.972;4.624;2023-04-05T10:56:29;15.2;;;6.8;;
52342;SDS011;38277;51.972;4.624;2023-04-05T11:01:09;12.9;;;6.8;;
52342;SDS011;38277;51.972;4.624;2023-04-05T11:05:42;11.9;;;6.3;;
52342;SDS011;38277;51.972;4.624;2023-04-05T11:10:21;14.7;;;6.6;;
52342;SDS011;38277;51.972;4.624;2023-04-05T11:19:10;13.1;;;6.5;;
52342;SDS011;38277;51.972;4.624;2023-04-05T11:23:27;13.0;;;6.0;;
52342;SDS011;38277;51.972;4.624;2023-04-05T11:28:22;14.7;;;6.8;;
52342;SDS011;38277;51.972;4.624;2023-04-05T11:32:37;11.0;;;6.1;;
52342;SDS011;38277;51.972;4.624;2023-04-05T11:41:32;9.7;;;4.8;;
52342;SDS011;38277;51.972;4.624;2023-04-05T11:46:04;11.6;;;6.2;;
52342;SDS011;38277;51.972;4.624;2023-04-05T11:50:50;8.6;;;5.3;;
52342;SDS011;38277;51.972;4.624;2023-04-05T11:55:04;7.9;;;4.7;;
52342;SDS011;38277;51.972;4.624;2023-04-05T11:59:36;8.6;;;5.1;;
52342;SDS011;38277;51.972;4.624;2023-04-05T12:04:18;10.7;;;5.5;;
52342;SDS011;38277;51.972;4.624;2023-04-05T12:08:45;9.6;;;5.1;;
52342;SDS011;38277;51.972;4.624;2023-04-05T12:17:36;6.1;;;3.7;;
52342;SDS011;38277;51.972;4.624;2023-04-05T12:22:14;10.9;;;5.6;;
52342;SDS011;38277;51.972;4.624;2023-04-05T12:26:42;8.4;;;4.9;;
52342;SDS011;38277;51.972;4.624;2023-04-05T12:31:34;8.1;;;4.4;;
52342;SDS011;38277;51.972;4.624;2023-04-05T12:35:34;10.0;;;4.8;;
52342;SDS011;38277;51.972;4.624;2023-04-05T12:40:19;8.1;;;5.0;;
52342;SDS011;38277;51.972;4.624;2023-04-05T12:45:02;8.4;;;5.0;;
52342;SDS011;38277;51.972;4.624;2023-04-05T12:53:48;9.1;;;4.4;;
52342;SDS011;38277;51.972;4.624;2023-04-05T12:58:00;9.2;;;5.6;;
52342;SDS011;38277;51.972;4.624;2023-04-05T13:02:47;10.6;;;5.4;;
52342;SDS011;38277;51.972;4.624;2023-04-05T13:07:01;8.7;;;4.9;;
52342;SDS011;38277;51.972;4.624;2023-04-05T13:11:50;8.9;;;5.7;;
52342;SDS011;38277;51.972;4.624;2023-04-05T13:16:00;9.1;;;5.0;;
52342;SDS011;38277;51.972;4.624;2023-04-05T13:20:27;10.5;;;5.7;;
52342;SDS011;38277;51.972;4.624;2023-04-05T13:29:52;8.4;;;5.7;;
52342;SDS011;38277;51.972;4.624;2023-04-05T13:33:59;8.9;;;4.9;;
52342;SDS011;38277;51.972;4.624;2023-04-05T13:38:50;8.3;;;5.0;;
52342;SDS011;38277;51.972;4.624;2023-04-05T13:47:27;10.7;;;6.4;;
52342;SDS011;38277;51.972;4.624;2023-04-05T13:52:11;7.1;;;4.3;;
52342;SDS011;38277;51.972;4.624;2023-04-05T13:56:40;6.9;;;4.4;;
52342;SDS011;38277;51.972;4.624;2023-04-05T14:05:29;9.4;;;6.2;;
52342;SDS011;38277;51.972;4.624;2023-04-05T14:10:20;9.6;;;5.4;;
52342;SDS011;38277;51.972;4.624;2023-04-05T14:14:33;9.9;;;5.6;;
52342;SDS011;38277;51.972;4.624;2023-04-05T14:18:58;9.2;;;5.7;;
52342;SDS011;38277;51.972;4.624;2023-04-05T14:23:50;9.4;;;5.2;;
52342;SDS011;38277;51.972;4.624;2023-04-05T14:28:03;8.1;;;5.3;;
52342;SDS011;38277;51.972;4.624;2023-04-05T14:32:39;11.0;;;4.9;;
52342;SDS011;38277;51.972;4.624;2023-04-05T14:37:12;9.3;;;5.6;;
52342;SDS011;38277;51.972;4.624;2023-04-05T14:41:54;9.8;;;5.1;;
52342;SDS011;38277;51.972;4.624;2023-04-05T14:46:22;9.9;;;5.6;;
52342;SDS011;38277;51.972;4.624;2023-04-05T14:50:51;10.9;;;6.3;;
52342;SDS011;38277;51.972;4.624;2023-04-05T14:55:18;10.2;;;5.2;;
52342;SDS011;38277;51.972;4.624;2023-04-05T14:59:27;11.2;;;5.9;;
52342;SDS011;38277;51.972;4.624;2023-04-05T15:04:24;9.6;;;5.8;;
52342;SDS011;38277;51.972;4.624;2023-04-05T15:08:51;9.3;;;5.9;;
52342;SDS011;38277;51.972;4.624;2023-04-05T15:13:17;10.7;;;5.5;;
52342;SDS011;38277;51.972;4.624;2023-04-05T15:17:33;10.8;;;6.7;;
52342;SDS011;38277;51.972;4.624;2023-04-05T15:22:05;11.0;;;6.4;;
52342;SDS011;38277;51.972;4.624;2023-04-05T15:26:42;14.2;;;8.5;;
52342;SDS011;38277;51.972;4.624;2023-04-05T15:31:03;12.8;;;7.2;;
52342;SDS011;38277;51.972;4.624;2023-04-05T15:35:48;12.1;;;7.9;;
52342;SDS011;38277;51.972;4.624;2023-04-05T15:40:15;13.3;;;7.7;;
52342;SDS011;38277;51.972;4.624;2023-04-05T15:44:51;58.5;;;30.6;;
52342;SDS011;38277;51.972;4.624;2023-04-05T15:48:59;13.1;;;7.8;;
52342;SDS011;38277;51.972;4.624;2023-04-05T15:53:33;14.4;;;8.9;;
52342;SDS011;38277;51.972;4.624;2023-04-05T15:58:25;14.7;;;8.9;;
52342;SDS011;38277;51.972;4.624;2023-04-05T16:02:48;13.9;;;8.5;;
52342;SDS011;38277;51.972;4.624;2023-04-05T16:07:04;13.6;;;8.9;;
52342;SDS011;38277;51.972;4.624;2023-04-05T16:11:36;14.5;;;8.1;;
52342;SDS011;38277;51.972;4.624;2023-04-05T16:16:22;13.4;;;8.1;;
52342;SDS011;38277;51.972;4.624;2023-04-05T16:20:30;14.6;;;8.4;;
52342;SDS011;38277;51.972;4.624;2023-04-05T16:25:01;13.4;;;8.0;;
52342;SDS011;38277;51.972;4.624;2023-04-05T16:29:33;14.0;;;9.0;;
52342;SDS011;38277;51.972;4.624;2023-04-05T16:34:24;16.8;;;10.2;;
52342;SDS011;38277;51.972;4.624;2023-04-05T16:43:04;15.9;;;10.4;;
52342;SDS011;38277;51.972;4.624;2023-04-05T16:47:35;15.4;;;8.8;;
52342;SDS011;38277;51.972;4.624;2023-04-05T16:52:25;16.6;;;10.0;;
52342;SDS011;38277;51.972;4.624;2023-04-05T16:56:42;21.9;;;12.3;;
52342;SDS011;38277;51.972;4.624;2023-04-05T17:05:34;28.6;;;16.5;;
52342;SDS011;38277;51.972;4.624;2023-04-05T17:10:10;26.5;;;15.4;;
52342;SDS011;38277;51.972;4.624;2023-04-05T17:19:11;27.9;;;16.3;;
52342;SDS011;38277;51.972;4.624;2023-04-05T17:23:34;27.4;;;15.6;;
52342;SDS011;38277;51.972;4.624;2023-04-05T17:28:00;26.5;;;16.0;;
52342;SDS011;38277;51.972;4.624;2023-04-05T17:32:45;28.6;;;15.7;;
52342;SDS011;38277;51.972;4.624;2023-04-05T17:37:13;29.4;;;15.8;;
52342;SDS011;38277;51.972;4.624;2023-04-05T17:43:34;32.4;;;17.3;;
52342;SDS011;38277;51.972;4.624;2023-04-05T17:46:13;29.0;;;16.3;;
52342;SDS011;38277;51.972;4.624;2023-04-05T17:50:43;29.0;;;16.2;;
52342;SDS011;38277;51.972;4.624;2023-04-05T17:55:01;26.0;;;14.3;;
52342;SDS011;38277;51.972;4.624;2023-04-05T18:01:10;26.8;;;14.8;;
52342;SDS011;38277;51.972;4.624;2023-04-05T18:04:19;26.8;;;14.8;;
52342;SDS011;38277;51.972;4.624;2023-04-05T18:08:46;22.8;;;13.2;;
52342;SDS011;38277;51.972;4.624;2023-04-05T18:13:23;27.9;;;15.1;;
52342;SDS011;38277;51.972;4.624;2023-04-05T18:19:19;25.8;;;14.5;;
52342;SDS011;38277;51.972;4.624;2023-04-05T18:22:04;27.2;;;15.1;;
52342;SDS011;38277;51.972;4.624;2023-04-05T18:26:36;26.3;;;14.2;;
52342;SDS011;38277;51.972;4.624;2023-04-05T18:30:58;26.2;;;14.5;;
52342;SDS011;38277;51.972;4.624;2023-04-05T18:37:10;26.4;;;13.8;;
52342;SDS011;38277;51.972;4.624;2023-04-05T18:40:12;26.3;;;14.3;;
52342;SDS011;38277;51.972;4.624;2023-04-05T18:44:29;22.7;;;12.9;;
52342;SDS011;38277;51.972;4.624;2023-04-05T18:49:15;24.2;;;13.4;;
52342;SDS011;38277;51.972;4.624;2023-04-05T18:55:19;26.1;;;13.4;;
52342;SDS011;38277;51.972;4.624;2023-04-05T18:57:58;25.0;;;13.2;;
52342;SDS011;38277;51.972;4.624;2023-04-05T19:02:29;26.5;;;14.1;;
52342;SDS011;38277;51.972;4.624;2023-04-05T19:07:23;24.2;;;11.8;;
52342;SDS011;38277;51.972;4.624;2023-04-05T19:13:16;24.6;;;14.2;;
52342;SDS011;38277;51.972;4.624;2023-04-05T19:16:25;24.1;;;13.0;;
52342;SDS011;38277;51.972;4.624;2023-04-05T19:20:55;24.6;;;12.9;;
52342;SDS011;38277;51.972;4.624;2023-04-05T19:25:16;28.0;;;14.8;;
52342;SDS011;38277;51.972;4.624;2023-04-05T19:31:26;28.2;;;14.9;;
52342;SDS011;38277;51.972;4.624;2023-04-05T19:34:19;26.2;;;15.7;;
52342;SDS011;38277;51.972;4.624;2023-04-05T19:38:28;26.6;;;15.8;;
52342;SDS011;38277;51.972;4.624;2023-04-05T19:43:15;28.6;;;15.1;;
52342;SDS011;38277;51.972;4.624;2023-04-05T19:49:34;28.8;;;15.5;;
52342;SDS011;38277;51.972;4.624;2023-04-05T19:52:37;31.2;;;17.2;;
52342;SDS011;38277;51.972;4.624;2023-04-05T19:56:53;30.0;;;16.4;;
52342;SDS011;38277;51.972;4.624;2023-04-05T20:01:01;27.4;;;15.2;;
52342;SDS011;38277;51.972;4.624;2023-04-05T20:07:07;27.2;;;14.9;;
52342;SDS011;38277;51.972;4.624;2023-04-05T20:10:06;28.6;;;14.4;;
52342;SDS011;38277;51.972;4.624;2023-04-05T20:14:45;28.1;;;15.9;;
52342;SDS011;38277;51.972;4.624;2023-04-05T20:19:25;30.5;;;17.3;;
52342;SDS011;38277;51.972;4.624;2023-04-05T20:25:38;27.9;;;16.0;;
52342;SDS011;38277;51.972;4.624;2023-04-05T20:28:25;29.6;;;16.2;;
52342;SDS011;38277;51.972;4.624;2023-04-05T20:32:39;29.1;;;16.6;;
52342;SDS011;38277;51.972;4.624;2023-04-05T20:37:06;30.1;;;17.0;;
52342;SDS011;38277;51.972;4.624;2023-04-05T20:43:11;29.8;;;17.2;;
52342;SDS011;38277;51.972;4.624;2023-04-05T20:46:15;28.8;;;15.7;;
52342;SDS011;38277;51.972;4.624;2023-04-05T20:50:36;25.8;;;15.2;;
52342;SDS011;38277;51.972;4.624;2023-04-05T20:55:01;27.7;;;14.5;;
52342;SDS011;38277;51.972;4.624;2023-04-05T20:59:36;25.9;;;14.6;;
52342;SDS011;38277;51.972;4.624;2023-04-05T21:08:40;32.5;;;17.1;;
52342;SDS011;38277;51.972;4.624;2023-04-05T21:13:00;31.8;;;16.2;;
52342;SDS011;38277;51.972;4.624;2023-04-05T21:17:43;28.3;;;16.5;;
52342;SDS011;38277;51.972;4.624;2023-04-05T21:22:23;28.7;;;16.8;;
52342;SDS011;38277;51.972;4.624;2023-04-05T21:26:51;32.1;;;17.7;;
52342;SDS011;38277;51.972;4.624;2023-04-05T21:31:20;30.1;;;17.2;;
52342;SDS011;38277;51.972;4.624;2023-04-05T21:35:27;31.3;;;17.8;;
52342;SDS011;38277;51.972;4.624;2023-04-05T21:44:33;29.3;;;16.2;;
52342;SDS011;38277;51.972;4.624;2023-04-05T21:49:20;29.4;;;16.6;;
52342;SDS011;38277;51.972;4.624;2023-04-05T21:53:43;30.4;;;17.3;;
52342;SDS011;38277;51.972;4.624;2023-04-05T21:58:04;29.8;;;16.2;;
52342;SDS011;38277;51.972;4.624;2023-04-05T22:02:31;30.2;;;16.5;;
52342;SDS011;38277;51.972;4.624;2023-04-05T22:07:20;27.0;;;15.4;;
52342;SDS011;38277;51.972;4.624;2023-04-05T22:11:36;32.6;;;18.1;;
52342;SDS011;38277;51.972;4.624;2023-04-05T22:20:39;33.7;;;19.0;;
52342;SDS011;38277;51.972;4.624;2023-04-05T22:25:15;31.6;;;17.4;;
52342;SDS011;38277;51.972;4.624;2023-04-05T22:29:35;34.0;;;19.5;;
52342;SDS011;38277;51.972;4.624;2023-04-05T22:34:10;37.8;;;21.5;;
52342;SDS011;38277;51.972;4.624;2023-04-05T22:38:36;36.5;;;21.1;;
52342;SDS011;38277;51.972;4.624;2023-04-05T22:43:21;34.7;;;20.8;;
52342;SDS011;38277;51.972;4.624;2023-04-05T22:47:47;35.8;;;20.3;;
52342;SDS011;38277;51.972;4.624;2023-04-05T22:56:56;35.5;;;20.3;;
52342;SDS011;38277;51.972;4.624;2023-04-05T23:01:23;34.6;;;19.8;;
52342;SDS011;38277;51.972;4.624;2023-04-05T23:05:52;37.5;;;21.6;;
52342;SDS011;38277;51.972;4.624;2023-04-05T23:10:10;35.2;;;19.7;;
52342;SDS011;38277;51.972;4.624;2023-04-05T23:14:56;36.9;;;20.8;;
52342;SDS011;38277;51.972;4.624;2023-04-05T23:19:18;37.3;;;21.5;;
52342;SDS011;38277;51.972;4.624;2023-04-05T23:23:39;35.7;;;20.0;;
52342;SDS011;38277;51.972;4.624;2023-04-05T23:32:52;35.0;;;20.0;;
52342;SDS011;38277;51.972;4.624;2023-04-05T23:37:01;32.2;;;17.8;;
52342;SDS011;38277;51.972;4.624;2023-04-05T23:41:28;27.4;;;16.1;;
52342;SDS011;38277;51.972;4.624;2023-04-05T23:46:09;27.6;;;14.9;;
52342;SDS011;38277;51.972;4.624;2023-04-05T23:50:49;25.0;;;13.5;;
52342;SDS011;38277;51.972;4.624;2023-04-05T23:55:11;22.9;;;12.4;;
52342;SDS011;38277;51.972;4.624;2023-04-05T23:59:46;26.2;;;12.0;;
